sensor_id;sensor_type;location;lat;lon;timestamp;P1;durP1;ratioP1;P2;durP2;ratioP2
65737;SDS011;52478;51.844;6.582;2023-06-14T00:01:08;7.65;;;4.63;;
65737;SDS011;52478;51.844;6.582;2023-06-14T00:03:35;7.68;;;4.72;;
65737;SDS011;52478;51.844;6.582;2023-06-14T00:06:01;8.15;;;4.55;;
65737;SDS011;52478;51.844;6.582;2023-06-14T00:08:27;8.27;;;4.57;;
65737;SDS011;52478;51.844;6.582;2023-06-14T00:10:54;8.32;;;4.57;;
65737;SDS011;52478;51.844;6.582;2023-06-14T00:13:22;7.50;;;4.55;;
65737;SDS011;52478;51.844;6.582;2023-06-14T00:15:48;8.30;;;4.60;;
65737;SDS011;52478;51.844;6.582;2023-06-14T00:18:14;7.30;;;4.13;;
65737;SDS011;52478;51.844;6.582;2023-06-14T00:20:41;8.48;;;4.75;;
65737;SDS011;52478;51.844;6.582;2023-06-14T00:25:34;7.25;;;4.47;;
65737;SDS011;52478;51.844;6.582;2023-06-14T00:28:01;7.38;;;4.57;;
65737;SDS011;52478;51.844;6.582;2023-06-14T00:30:28;8.82;;;4.95;;
65737;SDS011;52478;51.844;6.582;2023-06-14T00:32:55;7.00;;;4.28;;
65737;SDS011;52478;51.844;6.582;2023-06-14T00:35:22;8.35;;;4.55;;
65737;SDS011;52478;51.844;6.582;2023-06-14T00:37:48;8.07;;;4.22;;
65737;SDS011;52478;51.844;6.582;2023-06-14T00:40:15;7.97;;;4.60;;
65737;SDS011;52478;51.844;6.582;2023-06-14T00:42:41;8.23;;;4.70;;
65737;SDS011;52478;51.844;6.582;2023-06-14T00:45:08;7.50;;;4.18;;
65737;SDS011;52478;51.844;6.582;2023-06-14T00:47:37;7.47;;;4.30;;
65737;SDS011;52478;51.844;6.582;2023-06-14T00:50:06;7.35;;;4.35;;
65737;SDS011;52478;51.844;6.582;2023-06-14T00:52:33;7.57;;;4.25;;
65737;SDS011;52478;51.844;6.582;2023-06-14T00:57:27;7.97;;;4.82;;
65737;SDS011;52478;51.844;6.582;2023-06-14T00:59:54;7.07;;;4.20;;
65737;SDS011;52478;51.844;6.582;2023-06-14T01:02:21;7.38;;;4.50;;
65737;SDS011;52478;51.844;6.582;2023-06-14T01:04:50;7.47;;;4.20;;
65737;SDS011;52478;51.844;6.582;2023-06-14T01:07:20;8.85;;;4.28;;
65737;SDS011;52478;51.844;6.582;2023-06-14T01:09:58;9.93;;;4.68;;
65737;SDS011;52478;51.844;6.582;2023-06-14T01:12:35;8.00;;;4.00;;
65737;SDS011;52478;51.844;6.582;2023-06-14T01:15:05;9.13;;;4.80;;
65737;SDS011;52478;51.844;6.582;2023-06-14T01:17:34;7.78;;;4.10;;
65737;SDS011;52478;51.844;6.582;2023-06-14T01:20:03;7.80;;;4.28;;
65737;SDS011;52478;51.844;6.582;2023-06-14T01:25:03;7.45;;;4.18;;
65737;SDS011;52478;51.844;6.582;2023-06-14T01:27:30;7.40;;;4.30;;
65737;SDS011;52478;51.844;6.582;2023-06-14T01:29:57;8.75;;;4.43;;
65737;SDS011;52478;51.844;6.582;2023-06-14T01:32:27;8.48;;;4.32;;
65737;SDS011;52478;51.844;6.582;2023-06-14T01:34:55;7.70;;;4.28;;
65737;SDS011;52478;51.844;6.582;2023-06-14T01:37:21;8.30;;;4.22;;
65737;SDS011;52478;51.844;6.582;2023-06-14T01:42:16;7.88;;;3.95;;
65737;SDS011;52478;51.844;6.582;2023-06-14T01:44:44;7.88;;;4.35;;
65737;SDS011;52478;51.844;6.582;2023-06-14T01:47:12;7.80;;;4.43;;
65737;SDS011;52478;51.844;6.582;2023-06-14T01:49:40;7.75;;;4.22;;
65737;SDS011;52478;51.844;6.582;2023-06-14T01:52:06;7.13;;;4.25;;
65737;SDS011;52478;51.844;6.582;2023-06-14T01:54:34;7.47;;;3.88;;
65737;SDS011;52478;51.844;6.582;2023-06-14T01:57:02;8.85;;;3.90;;
65737;SDS011;52478;51.844;6.582;2023-06-14T02:02:00;7.13;;;4.05;;
65737;SDS011;52478;51.844;6.582;2023-06-14T02:04:26;7.13;;;4.20;;
65737;SDS011;52478;51.844;6.582;2023-06-14T02:06:52;7.20;;;3.95;;
65737;SDS011;52478;51.844;6.582;2023-06-14T02:09:19;6.65;;;4.15;;
65737;SDS011;52478;51.844;6.582;2023-06-14T02:11:45;8.02;;;4.05;;
65737;SDS011;52478;51.844;6.582;2023-06-14T02:14:12;7.03;;;4.07;;
65737;SDS011;52478;51.844;6.582;2023-06-14T02:16:41;7.00;;;3.88;;
65737;SDS011;52478;51.844;6.582;2023-06-14T02:19:14;6.93;;;3.85;;
65737;SDS011;52478;51.844;6.582;2023-06-14T02:21:40;7.53;;;4.00;;
65737;SDS011;52478;51.844;6.582;2023-06-14T02:24:07;6.75;;;3.83;;
65737;SDS011;52478;51.844;6.582;2023-06-14T02:26:33;7.15;;;4.00;;
65737;SDS011;52478;51.844;6.582;2023-06-14T02:29:00;7.07;;;3.90;;
65737;SDS011;52478;51.844;6.582;2023-06-14T02:31:26;6.85;;;4.13;;
65737;SDS011;52478;51.844;6.582;2023-06-14T02:33:55;8.00;;;3.85;;
65737;SDS011;52478;51.844;6.582;2023-06-14T02:36:21;7.63;;;3.90;;
65737;SDS011;52478;51.844;6.582;2023-06-14T02:38:48;7.45;;;3.90;;
65737;SDS011;52478;51.844;6.582;2023-06-14T02:41:14;7.15;;;3.83;;
65737;SDS011;52478;51.844;6.582;2023-06-14T02:43:41;7.43;;;4.10;;
65737;SDS011;52478;51.844;6.582;2023-06-14T02:46:07;6.65;;;3.85;;
65737;SDS011;52478;51.844;6.582;2023-06-14T02:48:34;6.63;;;3.65;;
65737;SDS011;52478;51.844;6.582;2023-06-14T02:51:02;6.43;;;3.67;;
65737;SDS011;52478;51.844;6.582;2023-06-14T02:53:28;6.90;;;3.78;;
65737;SDS011;52478;51.844;6.582;2023-06-14T02:55:55;7.57;;;4.03;;
65737;SDS011;52478;51.844;6.582;2023-06-14T02:58:21;7.95;;;3.80;;
65737;SDS011;52478;51.844;6.582;2023-06-14T03:00:50;6.85;;;3.85;;
65737;SDS011;52478;51.844;6.582;2023-06-14T03:03:17;7.05;;;3.80;;
65737;SDS011;52478;51.844;6.582;2023-06-14T03:05:46;6.60;;;3.33;;
65737;SDS011;52478;51.844;6.582;2023-06-14T03:08:16;7.45;;;3.92;;
65737;SDS011;52478;51.844;6.582;2023-06-14T03:10:45;7.43;;;4.07;;
65737;SDS011;52478;51.844;6.582;2023-06-14T03:13:12;7.45;;;3.83;;
65737;SDS011;52478;51.844;6.582;2023-06-14T03:15:38;6.32;;;3.50;;
65737;SDS011;52478;51.844;6.582;2023-06-14T03:18:07;6.63;;;3.72;;
65737;SDS011;52478;51.844;6.582;2023-06-14T03:20:34;7.18;;;3.80;;
65737;SDS011;52478;51.844;6.582;2023-06-14T03:23:01;7.88;;;3.67;;
65737;SDS011;52478;51.844;6.582;2023-06-14T03:25:29;7.32;;;3.60;;
65737;SDS011;52478;51.844;6.582;2023-06-14T03:27:56;6.60;;;3.38;;
65737;SDS011;52478;51.844;6.582;2023-06-14T03:30:22;6.38;;;3.70;;
65737;SDS011;52478;51.844;6.582;2023-06-14T03:32:49;6.47;;;3.75;;
65737;SDS011;52478;51.844;6.582;2023-06-14T03:35:17;7.10;;;3.90;;
65737;SDS011;52478;51.844;6.582;2023-06-14T03:37:43;6.43;;;3.58;;
65737;SDS011;52478;51.844;6.582;2023-06-14T03:40:11;6.50;;;3.90;;
65737;SDS011;52478;51.844;6.582;2023-06-14T03:42:40;6.95;;;3.47;;
65737;SDS011;52478;51.844;6.582;2023-06-14T03:45:07;6.70;;;3.55;;
65737;SDS011;52478;51.844;6.582;2023-06-14T03:47:34;7.25;;;3.80;;
65737;SDS011;52478;51.844;6.582;2023-06-14T03:52:27;6.80;;;3.60;;
65737;SDS011;52478;51.844;6.582;2023-06-14T03:57:20;7.07;;;3.40;;
65737;SDS011;52478;51.844;6.582;2023-06-14T03:59:49;6.88;;;3.38;;
65737;SDS011;52478;51.844;6.582;2023-06-14T04:02:16;6.30;;;3.40;;
65737;SDS011;52478;51.844;6.582;2023-06-14T04:04:43;6.85;;;3.70;;
65737;SDS011;52478;51.844;6.582;2023-06-14T04:07:10;7.03;;;3.70;;
65737;SDS011;52478;51.844;6.582;2023-06-14T04:09:37;6.28;;;3.30;;
65737;SDS011;52478;51.844;6.582;2023-06-14T04:12:03;7.10;;;3.85;;
65737;SDS011;52478;51.844;6.582;2023-06-14T04:14:30;6.20;;;3.13;;
65737;SDS011;52478;51.844;6.582;2023-06-14T04:16:59;8.68;;;3.35;;
65737;SDS011;52478;51.844;6.582;2023-06-14T04:19:25;8.95;;;3.92;;
65737;SDS011;52478;51.844;6.582;2023-06-14T04:21:52;9.75;;;4.10;;
65737;SDS011;52478;51.844;6.582;2023-06-14T04:24:19;12.73;;;4.18;;
65737;SDS011;52478;51.844;6.582;2023-06-14T04:26:45;10.48;;;4.25;;
65737;SDS011;52478;51.844;6.582;2023-06-14T04:29:13;14.00;;;4.78;;
65737;SDS011;52478;51.844;6.582;2023-06-14T04:31:41;9.75;;;4.15;;
65737;SDS011;52478;51.844;6.582;2023-06-14T04:34:09;10.25;;;3.97;;
65737;SDS011;52478;51.844;6.582;2023-06-14T04:36:41;10.27;;;3.95;;
65737;SDS011;52478;51.844;6.582;2023-06-14T04:39:14;9.35;;;3.78;;
65737;SDS011;52478;51.844;6.582;2023-06-14T04:41:40;8.85;;;4.10;;
65737;SDS011;52478;51.844;6.582;2023-06-14T04:44:07;7.80;;;3.70;;
65737;SDS011;52478;51.844;6.582;2023-06-14T04:46:35;9.30;;;4.10;;
65737;SDS011;52478;51.844;6.582;2023-06-14T04:49:10;7.15;;;3.30;;
65737;SDS011;52478;51.844;6.582;2023-06-14T04:51:39;8.07;;;3.53;;
65737;SDS011;52478;51.844;6.582;2023-06-14T04:54:06;7.13;;;3.15;;
65737;SDS011;52478;51.844;6.582;2023-06-14T04:56:38;9.45;;;3.50;;
65737;SDS011;52478;51.844;6.582;2023-06-14T04:59:05;8.57;;;3.45;;
65737;SDS011;52478;51.844;6.582;2023-06-14T05:01:32;8.30;;;3.63;;
65737;SDS011;52478;51.844;6.582;2023-06-14T05:03:59;8.38;;;3.70;;
65737;SDS011;52478;51.844;6.582;2023-06-14T05:08:55;7.43;;;3.15;;
65737;SDS011;52478;51.844;6.582;2023-06-14T05:11:21;7.85;;;3.25;;
65737;SDS011;52478;51.844;6.582;2023-06-14T05:13:49;7.65;;;3.00;;
65737;SDS011;52478;51.844;6.582;2023-06-14T05:16:15;8.05;;;3.25;;
65737;SDS011;52478;51.844;6.582;2023-06-14T05:18:44;7.55;;;3.13;;
65737;SDS011;52478;51.844;6.582;2023-06-14T05:21:11;7.40;;;3.33;;
65737;SDS011;52478;51.844;6.582;2023-06-14T05:23:38;6.72;;;3.30;;
65737;SDS011;52478;51.844;6.582;2023-06-14T05:26:05;6.78;;;3.05;;
65737;SDS011;52478;51.844;6.582;2023-06-14T05:28:31;7.55;;;3.40;;
65737;SDS011;52478;51.844;6.582;2023-06-14T05:30:58;6.88;;;2.90;;
65737;SDS011;52478;51.844;6.582;2023-06-14T05:33:24;6.63;;;3.00;;
65737;SDS011;52478;51.844;6.582;2023-06-14T05:35:51;6.63;;;2.95;;
65737;SDS011;52478;51.844;6.582;2023-06-14T05:38:17;7.43;;;2.92;;
65737;SDS011;52478;51.844;6.582;2023-06-14T05:40:45;8.20;;;3.20;;
65737;SDS011;52478;51.844;6.582;2023-06-14T05:43:12;6.45;;;2.83;;
65737;SDS011;52478;51.844;6.582;2023-06-14T05:45:38;6.93;;;2.92;;
65737;SDS011;52478;51.844;6.582;2023-06-14T05:48:05;6.38;;;2.88;;
65737;SDS011;52478;51.844;6.582;2023-06-14T05:50:31;7.05;;;2.90;;
65737;SDS011;52478;51.844;6.582;2023-06-14T05:52:58;9.00;;;3.08;;
65737;SDS011;52478;51.844;6.582;2023-06-14T05:55:25;6.75;;;2.90;;
65737;SDS011;52478;51.844;6.582;2023-06-14T05:57:53;6.80;;;2.78;;
65737;SDS011;52478;51.844;6.582;2023-06-14T06:00:20;6.20;;;3.00;;
65737;SDS011;52478;51.844;6.582;2023-06-14T06:02:47;7.95;;;2.78;;
65737;SDS011;52478;51.844;6.582;2023-06-14T06:05:14;9.02;;;3.10;;
65737;SDS011;52478;51.844;6.582;2023-06-14T06:07:42;6.00;;;2.75;;
65737;SDS011;52478;51.844;6.582;2023-06-14T06:10:09;6.20;;;2.75;;
65737;SDS011;52478;51.844;6.582;2023-06-14T06:15:04;5.93;;;2.85;;
65737;SDS011;52478;51.844;6.582;2023-06-14T06:17:32;7.47;;;2.70;;
65737;SDS011;52478;51.844;6.582;2023-06-14T06:19:59;5.90;;;2.58;;
65737;SDS011;52478;51.844;6.582;2023-06-14T06:22:25;6.00;;;2.78;;
65737;SDS011;52478;51.844;6.582;2023-06-14T06:24:52;7.15;;;2.67;;
65737;SDS011;52478;51.844;6.582;2023-06-14T06:27:19;7.60;;;2.85;;
65737;SDS011;52478;51.844;6.582;2023-06-14T06:29:45;7.05;;;2.85;;
65737;SDS011;52478;51.844;6.582;2023-06-14T06:32:14;6.35;;;2.65;;
65737;SDS011;52478;51.844;6.582;2023-06-14T06:34:41;6.30;;;2.60;;
65737;SDS011;52478;51.844;6.582;2023-06-14T06:37:07;7.13;;;2.70;;
65737;SDS011;52478;51.844;6.582;2023-06-14T06:39:34;7.07;;;2.63;;
65737;SDS011;52478;51.844;6.582;2023-06-14T06:42:01;6.57;;;2.95;;
65737;SDS011;52478;51.844;6.582;2023-06-14T06:44:27;6.50;;;2.83;;
65737;SDS011;52478;51.844;6.582;2023-06-14T06:46:53;6.40;;;2.40;;
65737;SDS011;52478;51.844;6.582;2023-06-14T06:49:21;6.45;;;2.50;;
65737;SDS011;52478;51.844;6.582;2023-06-14T06:51:59;7.25;;;2.58;;
65737;SDS011;52478;51.844;6.582;2023-06-14T06:54:26;5.93;;;2.55;;
65737;SDS011;52478;51.844;6.582;2023-06-14T06:56:53;5.57;;;2.30;;
65737;SDS011;52478;51.844;6.582;2023-06-14T06:59:19;7.65;;;2.85;;
65737;SDS011;52478;51.844;6.582;2023-06-14T07:01:46;7.38;;;2.80;;
65737;SDS011;52478;51.844;6.582;2023-06-14T07:04:12;6.40;;;2.80;;
65737;SDS011;52478;51.844;6.582;2023-06-14T07:06:41;6.43;;;2.75;;
65737;SDS011;52478;51.844;6.582;2023-06-14T07:09:07;5.05;;;2.13;;
65737;SDS011;52478;51.844;6.582;2023-06-14T07:11:37;5.78;;;2.53;;
65737;SDS011;52478;51.844;6.582;2023-06-14T07:14:04;6.30;;;2.47;;
65737;SDS011;52478;51.844;6.582;2023-06-14T07:16:30;6.35;;;2.60;;
65737;SDS011;52478;51.844;6.582;2023-06-14T07:18:57;6.57;;;2.63;;
65737;SDS011;52478;51.844;6.582;2023-06-14T07:21:23;7.28;;;2.60;;
65737;SDS011;52478;51.844;6.582;2023-06-14T07:23:52;5.63;;;2.22;;
65737;SDS011;52478;51.844;6.582;2023-06-14T07:26:18;7.35;;;2.47;;
65737;SDS011;52478;51.844;6.582;2023-06-14T07:28:45;5.53;;;2.28;;
65737;SDS011;52478;51.844;6.582;2023-06-14T07:31:12;5.85;;;2.17;;
65737;SDS011;52478;51.844;6.582;2023-06-14T07:33:39;6.45;;;2.40;;
65737;SDS011;52478;51.844;6.582;2023-06-14T07:36:06;8.35;;;2.80;;
65737;SDS011;52478;51.844;6.582;2023-06-14T07:41:01;6.65;;;2.60;;
65737;SDS011;52478;51.844;6.582;2023-06-14T07:43:28;8.98;;;2.65;;
65737;SDS011;52478;51.844;6.582;2023-06-14T07:45:54;7.07;;;2.60;;
65737;SDS011;52478;51.844;6.582;2023-06-14T07:48:22;8.07;;;2.92;;
65737;SDS011;52478;51.844;6.582;2023-06-14T07:50:48;6.20;;;2.40;;
65737;SDS011;52478;51.844;6.582;2023-06-14T07:53:15;8.60;;;2.58;;
65737;SDS011;52478;51.844;6.582;2023-06-14T07:55:41;7.18;;;2.35;;
65737;SDS011;52478;51.844;6.582;2023-06-14T08:00:36;6.32;;;2.60;;
65737;SDS011;52478;51.844;6.582;2023-06-14T08:03:03;6.38;;;2.50;;
65737;SDS011;52478;51.844;6.582;2023-06-14T08:05:29;7.00;;;2.50;;
65737;SDS011;52478;51.844;6.582;2023-06-14T08:07:56;5.18;;;2.13;;
65737;SDS011;52478;51.844;6.582;2023-06-14T08:10:22;6.55;;;2.35;;
65737;SDS011;52478;51.844;6.582;2023-06-14T08:12:49;8.10;;;2.40;;
65737;SDS011;52478;51.844;6.582;2023-06-14T08:15:17;6.05;;;2.33;;
65737;SDS011;52478;51.844;6.582;2023-06-14T08:17:44;7.15;;;2.30;;
65737;SDS011;52478;51.844;6.582;2023-06-14T08:20:11;6.18;;;2.28;;
65737;SDS011;52478;51.844;6.582;2023-06-14T08:22:38;6.43;;;2.30;;
65737;SDS011;52478;51.844;6.582;2023-06-14T08:25:07;8.38;;;2.35;;
65737;SDS011;52478;51.844;6.582;2023-06-14T08:27:34;6.60;;;2.25;;
65737;SDS011;52478;51.844;6.582;2023-06-14T08:30:01;7.35;;;2.42;;
65737;SDS011;52478;51.844;6.582;2023-06-14T08:32:29;6.75;;;2.20;;
65737;SDS011;52478;51.844;6.582;2023-06-14T08:34:55;6.00;;;2.30;;
65737;SDS011;52478;51.844;6.582;2023-06-14T08:37:22;5.65;;;2.20;;
65737;SDS011;52478;51.844;6.582;2023-06-14T08:39:48;6.07;;;2.13;;
65737;SDS011;52478;51.844;6.582;2023-06-14T08:42:15;5.45;;;2.03;;
65737;SDS011;52478;51.844;6.582;2023-06-14T08:44:43;6.43;;;2.20;;
65737;SDS011;52478;51.844;6.582;2023-06-14T08:47:09;5.95;;;2.08;;
65737;SDS011;52478;51.844;6.582;2023-06-14T08:49:38;6.28;;;2.22;;
65737;SDS011;52478;51.844;6.582;2023-06-14T08:52:10;5.95;;;2.17;;
65737;SDS011;52478;51.844;6.582;2023-06-14T08:54:37;7.95;;;2.25;;
65737;SDS011;52478;51.844;6.582;2023-06-14T08:57:08;4.90;;;1.88;;
65737;SDS011;52478;51.844;6.582;2023-06-14T08:59:37;5.65;;;2.35;;
65737;SDS011;52478;51.844;6.582;2023-06-14T09:02:11;5.53;;;1.90;;
65737;SDS011;52478;51.844;6.582;2023-06-14T09:04:41;5.57;;;2.00;;
65737;SDS011;52478;51.844;6.582;2023-06-14T09:07:08;6.40;;;2.38;;
65737;SDS011;52478;51.844;6.582;2023-06-14T09:09:38;6.05;;;2.30;;
65737;SDS011;52478;51.844;6.582;2023-06-14T09:12:06;5.90;;;2.03;;
65737;SDS011;52478;51.844;6.582;2023-06-14T09:14:35;6.68;;;2.40;;
65737;SDS011;52478;51.844;6.582;2023-06-14T09:17:03;5.32;;;2.15;;
65737;SDS011;52478;51.844;6.582;2023-06-14T09:21:58;7.43;;;2.22;;
65737;SDS011;52478;51.844;6.582;2023-06-14T09:24:24;5.43;;;2.05;;
65737;SDS011;52478;51.844;6.582;2023-06-14T09:26:51;6.13;;;2.33;;
65737;SDS011;52478;51.844;6.582;2023-06-14T09:29:17;6.03;;;1.92;;
65737;SDS011;52478;51.844;6.582;2023-06-14T09:31:45;5.00;;;1.85;;
65737;SDS011;52478;51.844;6.582;2023-06-14T09:34:12;6.82;;;2.50;;
65737;SDS011;52478;51.844;6.582;2023-06-14T09:36:39;5.90;;;1.90;;
65737;SDS011;52478;51.844;6.582;2023-06-14T09:39:09;6.45;;;2.00;;
65737;SDS011;52478;51.844;6.582;2023-06-14T09:41:36;7.43;;;2.00;;
65737;SDS011;52478;51.844;6.582;2023-06-14T09:44:04;6.50;;;2.10;;
65737;SDS011;52478;51.844;6.582;2023-06-14T09:46:32;6.03;;;1.95;;
65737;SDS011;52478;51.844;6.582;2023-06-14T09:48:59;4.75;;;1.92;;
65737;SDS011;52478;51.844;6.582;2023-06-14T09:51:27;5.53;;;2.00;;
65737;SDS011;52478;51.844;6.582;2023-06-14T09:53:55;5.40;;;1.88;;
65737;SDS011;52478;51.844;6.582;2023-06-14T09:56:27;5.80;;;2.05;;
65737;SDS011;52478;51.844;6.582;2023-06-14T09:58:55;5.57;;;1.90;;
65737;SDS011;52478;51.844;6.582;2023-06-14T10:01:23;6.80;;;2.17;;
65737;SDS011;52478;51.844;6.582;2023-06-14T10:03:53;5.15;;;1.95;;
65737;SDS011;52478;51.844;6.582;2023-06-14T10:06:22;5.57;;;1.80;;
65737;SDS011;52478;51.844;6.582;2023-06-14T10:08:50;5.68;;;1.67;;
65737;SDS011;52478;51.844;6.582;2023-06-14T10:11:18;5.90;;;2.00;;
65737;SDS011;52478;51.844;6.582;2023-06-14T10:13:46;5.15;;;1.80;;
65737;SDS011;52478;51.844;6.582;2023-06-14T10:16:15;5.07;;;1.92;;
65737;SDS011;52478;51.844;6.582;2023-06-14T10:18:48;5.00;;;1.95;;
65737;SDS011;52478;51.844;6.582;2023-06-14T10:21:19;4.90;;;1.77;;
65737;SDS011;52478;51.844;6.582;2023-06-14T10:23:51;5.85;;;1.73;;
65737;SDS011;52478;51.844;6.582;2023-06-14T10:26:21;5.43;;;1.75;;
65737;SDS011;52478;51.844;6.582;2023-06-14T10:28:58;5.25;;;1.73;;
65737;SDS011;52478;51.844;6.582;2023-06-14T10:31:42;5.97;;;1.83;;
65737;SDS011;52478;51.844;6.582;2023-06-14T10:34:09;5.50;;;2.13;;
65737;SDS011;52478;51.844;6.582;2023-06-14T10:39:06;5.15;;;1.83;;
65737;SDS011;52478;51.844;6.582;2023-06-14T10:41:34;4.78;;;2.10;;
65737;SDS011;52478;51.844;6.582;2023-06-14T10:47:22;5.18;;;1.83;;
65737;SDS011;52478;51.844;6.582;2023-06-14T10:49:51;6.78;;;1.90;;
65737;SDS011;52478;51.844;6.582;2023-06-14T10:52:20;5.35;;;1.75;;
65737;SDS011;52478;51.844;6.582;2023-06-14T10:57:40;5.25;;;1.80;;
65737;SDS011;52478;51.844;6.582;2023-06-14T11:00:08;6.82;;;2.13;;
65737;SDS011;52478;51.844;6.582;2023-06-14T11:06:06;5.22;;;1.90;;
65737;SDS011;52478;51.844;6.582;2023-06-14T11:08:44;7.50;;;2.10;;
65737;SDS011;52478;51.844;6.582;2023-06-14T11:11:32;5.07;;;1.75;;
65737;SDS011;52478;51.844;6.582;2023-06-14T11:13:59;4.90;;;1.70;;
65737;SDS011;52478;51.844;6.582;2023-06-14T11:16:26;5.90;;;1.90;;
65737;SDS011;52478;51.844;6.582;2023-06-14T11:18:55;5.20;;;1.80;;
65737;SDS011;52478;51.844;6.582;2023-06-14T11:21:21;4.75;;;1.60;;
65737;SDS011;52478;51.844;6.582;2023-06-14T11:23:50;5.57;;;1.90;;
65737;SDS011;52478;51.844;6.582;2023-06-14T11:26:24;4.97;;;1.70;;
65737;SDS011;52478;51.844;6.582;2023-06-14T11:28:54;8.38;;;2.15;;
65737;SDS011;52478;51.844;6.582;2023-06-14T11:31:22;4.65;;;1.70;;
65737;SDS011;52478;51.844;6.582;2023-06-14T11:33:49;5.97;;;1.90;;
65737;SDS011;52478;51.844;6.582;2023-06-14T11:36:17;4.80;;;1.70;;
65737;SDS011;52478;51.844;6.582;2023-06-14T11:38:43;4.47;;;1.60;;
65737;SDS011;52478;51.844;6.582;2023-06-14T11:41:10;5.38;;;1.80;;
65737;SDS011;52478;51.844;6.582;2023-06-14T11:43:36;5.15;;;1.65;;
65737;SDS011;52478;51.844;6.582;2023-06-14T11:46:03;5.57;;;1.70;;
65737;SDS011;52478;51.844;6.582;2023-06-14T11:48:36;4.68;;;1.63;;
65737;SDS011;52478;51.844;6.582;2023-06-14T11:51:03;5.82;;;1.90;;
65737;SDS011;52478;51.844;6.582;2023-06-14T11:53:31;4.88;;;1.67;;
65737;SDS011;52478;51.844;6.582;2023-06-14T11:55:58;5.15;;;1.80;;
65737;SDS011;52478;51.844;6.582;2023-06-14T12:00:52;7.28;;;1.98;;
65737;SDS011;52478;51.844;6.582;2023-06-14T12:03:22;5.22;;;1.70;;
65737;SDS011;52478;51.844;6.582;2023-06-14T12:05:49;5.13;;;1.80;;
65737;SDS011;52478;51.844;6.582;2023-06-14T12:08:16;5.53;;;2.00;;
65737;SDS011;52478;51.844;6.582;2023-06-14T12:10:44;4.95;;;1.80;;
65737;SDS011;52478;51.844;6.582;2023-06-14T12:13:12;4.90;;;1.70;;
65737;SDS011;52478;51.844;6.582;2023-06-14T12:15:39;5.95;;;2.05;;
65737;SDS011;52478;51.844;6.582;2023-06-14T12:18:05;4.47;;;1.60;;
65737;SDS011;52478;51.844;6.582;2023-06-14T12:20:33;4.70;;;1.95;;
65737;SDS011;52478;51.844;6.582;2023-06-14T12:23:02;4.68;;;1.60;;
65737;SDS011;52478;51.844;6.582;2023-06-14T12:25:30;4.63;;;1.67;;
65737;SDS011;52478;51.844;6.582;2023-06-14T12:27:59;5.97;;;1.63;;
65737;SDS011;52478;51.844;6.582;2023-06-14T12:30:29;5.38;;;1.77;;
65737;SDS011;52478;51.844;6.582;2023-06-14T12:32:56;4.70;;;1.70;;
65737;SDS011;52478;51.844;6.582;2023-06-14T12:35:22;4.50;;;1.50;;
65737;SDS011;52478;51.844;6.582;2023-06-14T12:37:49;5.07;;;1.67;;
65737;SDS011;52478;51.844;6.582;2023-06-14T12:40:15;4.88;;;1.60;;
65737;SDS011;52478;51.844;6.582;2023-06-14T12:42:42;5.10;;;1.45;;
65737;SDS011;52478;51.844;6.582;2023-06-14T12:45:10;4.65;;;1.55;;
65737;SDS011;52478;51.844;6.582;2023-06-14T12:47:36;5.00;;;1.65;;
65737;SDS011;52478;51.844;6.582;2023-06-14T12:50:03;4.63;;;1.60;;
65737;SDS011;52478;51.844;6.582;2023-06-14T12:52:30;4.45;;;1.63;;
65737;SDS011;52478;51.844;6.582;2023-06-14T12:55:00;4.85;;;1.52;;
65737;SDS011;52478;51.844;6.582;2023-06-14T12:57:27;4.82;;;1.70;;
65737;SDS011;52478;51.844;6.582;2023-06-14T12:59:54;5.53;;;1.77;;
65737;SDS011;52478;51.844;6.582;2023-06-14T13:02:22;5.55;;;1.73;;
65737;SDS011;52478;51.844;6.582;2023-06-14T13:04:49;4.60;;;1.67;;
65737;SDS011;52478;51.844;6.582;2023-06-14T13:07:16;4.53;;;1.52;;
65737;SDS011;52478;51.844;6.582;2023-06-14T13:09:42;4.30;;;1.40;;
65737;SDS011;52478;51.844;6.582;2023-06-14T13:14:37;4.50;;;1.60;;
65737;SDS011;52478;51.844;6.582;2023-06-14T13:17:04;4.78;;;1.60;;
65737;SDS011;52478;51.844;6.582;2023-06-14T13:19:32;4.28;;;1.65;;
65737;SDS011;52478;51.844;6.582;2023-06-14T13:21:58;4.60;;;1.60;;
65737;SDS011;52478;51.844;6.582;2023-06-14T13:24:25;5.38;;;1.58;;
65737;SDS011;52478;51.844;6.582;2023-06-14T13:26:51;5.70;;;1.90;;
65737;SDS011;52478;51.844;6.582;2023-06-14T13:29:18;5.30;;;1.55;;
65737;SDS011;52478;51.844;6.582;2023-06-14T13:31:44;5.38;;;1.70;;
65737;SDS011;52478;51.844;6.582;2023-06-14T13:34:11;5.00;;;1.67;;
65737;SDS011;52478;51.844;6.582;2023-06-14T13:36:39;4.95;;;1.70;;
65737;SDS011;52478;51.844;6.582;2023-06-14T13:39:06;4.82;;;1.60;;
65737;SDS011;52478;51.844;6.582;2023-06-14T13:41:32;5.80;;;1.80;;
65737;SDS011;52478;51.844;6.582;2023-06-14T13:44:00;4.75;;;1.70;;
65737;SDS011;52478;51.844;6.582;2023-06-14T13:46:29;4.50;;;1.50;;
65737;SDS011;52478;51.844;6.582;2023-06-14T13:48:56;4.82;;;1.60;;
65737;SDS011;52478;51.844;6.582;2023-06-14T13:51:22;5.05;;;1.85;;
65737;SDS011;52478;51.844;6.582;2023-06-14T13:53:50;4.75;;;1.63;;
65737;SDS011;52478;51.844;6.582;2023-06-14T13:56:17;5.28;;;1.60;;
65737;SDS011;52478;51.844;6.582;2023-06-14T13:58:43;5.28;;;1.73;;
65737;SDS011;52478;51.844;6.582;2023-06-14T14:01:10;4.70;;;1.70;;
65737;SDS011;52478;51.844;6.582;2023-06-14T14:03:37;5.93;;;1.80;;
65737;SDS011;52478;51.844;6.582;2023-06-14T14:06:04;5.20;;;1.65;;
65737;SDS011;52478;51.844;6.582;2023-06-14T14:08:30;4.60;;;1.48;;
65737;SDS011;52478;51.844;6.582;2023-06-14T14:10:59;4.60;;;1.50;;
65737;SDS011;52478;51.844;6.582;2023-06-14T14:13:25;4.68;;;1.40;;
65737;SDS011;52478;51.844;6.582;2023-06-14T14:15:52;4.57;;;1.50;;
65737;SDS011;52478;51.844;6.582;2023-06-14T14:20:46;4.95;;;1.70;;
65737;SDS011;52478;51.844;6.582;2023-06-14T14:23:12;7.07;;;2.13;;
65737;SDS011;52478;51.844;6.582;2023-06-14T14:25:39;5.57;;;2.00;;
65737;SDS011;52478;51.844;6.582;2023-06-14T14:28:07;7.18;;;1.88;;
65737;SDS011;52478;51.844;6.582;2023-06-14T14:30:33;8.68;;;2.10;;
65737;SDS011;52478;51.844;6.582;2023-06-14T14:33:00;5.90;;;1.83;;
65737;SDS011;52478;51.844;6.582;2023-06-14T14:35:26;6.20;;;1.90;;
65737;SDS011;52478;51.844;6.582;2023-06-14T14:37:55;5.97;;;1.85;;
65737;SDS011;52478;51.844;6.582;2023-06-14T14:40:22;8.00;;;1.90;;
65737;SDS011;52478;51.844;6.582;2023-06-14T14:42:48;7.57;;;1.85;;
65737;SDS011;52478;51.844;6.582;2023-06-14T14:45:16;6.07;;;1.80;;
65737;SDS011;52478;51.844;6.582;2023-06-14T14:47:42;7.53;;;1.90;;
65737;SDS011;52478;51.844;6.582;2023-06-14T14:50:09;5.85;;;1.75;;
65737;SDS011;52478;51.844;6.582;2023-06-14T14:52:36;6.95;;;1.80;;
65737;SDS011;52478;51.844;6.582;2023-06-14T14:55:03;8.48;;;2.10;;
65737;SDS011;52478;51.844;6.582;2023-06-14T14:57:30;6.10;;;1.95;;
65737;SDS011;52478;51.844;6.582;2023-06-14T14:59:57;7.43;;;1.90;;
65737;SDS011;52478;51.844;6.582;2023-06-14T15:02:25;5.68;;;1.77;;
65737;SDS011;52478;51.844;6.582;2023-06-14T15:04:51;5.90;;;1.90;;
65737;SDS011;52478;51.844;6.582;2023-06-14T15:07:19;5.95;;;1.58;;
65737;SDS011;52478;51.844;6.582;2023-06-14T15:09:45;4.88;;;1.67;;
65737;SDS011;52478;51.844;6.582;2023-06-14T15:12:15;6.72;;;1.80;;
65737;SDS011;52478;51.844;6.582;2023-06-14T15:17:08;6.30;;;1.77;;
65737;SDS011;52478;51.844;6.582;2023-06-14T15:19:36;6.32;;;2.30;;
65737;SDS011;52478;51.844;6.582;2023-06-14T15:22:03;9.13;;;1.90;;
65737;SDS011;52478;51.844;6.582;2023-06-14T15:24:30;5.57;;;1.83;;
65737;SDS011;52478;51.844;6.582;2023-06-14T15:26:57;6.00;;;2.00;;
65737;SDS011;52478;51.844;6.582;2023-06-14T15:29:24;6.32;;;2.10;;
65737;SDS011;52478;51.844;6.582;2023-06-14T15:31:50;7.18;;;2.00;;
65737;SDS011;52478;51.844;6.582;2023-06-14T15:34:19;6.93;;;1.90;;
65737;SDS011;52478;51.844;6.582;2023-06-14T15:36:47;6.38;;;2.00;;
65737;SDS011;52478;51.844;6.582;2023-06-14T15:39:14;5.72;;;2.08;;
65737;SDS011;52478;51.844;6.582;2023-06-14T15:44:07;9.23;;;2.42;;